Time;durP1;ratioP1;P1;durP2;ratioP2;P2;SDS_P1;SDS_P2;PMS_P1;PMS_P2;Temp;Humidity;BMP_temperature;BMP_pressure;BME280_temperature;BME280_humidity;BME280_pressure;Samples;Min_cycle;Max_cycle;Signal;HPM_P1;HPM_P2
2023/10/30 00:02:18;;;;;;;9.25;5.95;;;;;;;;;;4995538;28;20170;-65
2023/10/30 00:04:43;;;;;;;12.60;7.30;;;;;;;;;;4977958;28;20474;-66
2023/10/30 00:07:09;;;;;;;13.40;8.13;;;;;;;;;;4995735;28;20022;-65
2023/10/30 00:09:34;;;;;;;13.77;7.60;;;;;;;;;;4995434;28;20448;-65
2023/10/30 00:12:00;;;;;;;10.20;6.03;;;;;;;;;;4995633;28;20375;-65
2023/10/30 00:14:26;;;;;;;12.10;6.50;;;;;;;;;;4995553;28;20467;-65
2023/10/30 00:16:52;;;;;;;10.32;5.60;;;;;;;;;;4995823;28;20039;-64
2023/10/30 00:19:17;;;;;;;8.18;5.22;;;;;;;;;;4978641;28;20038;-64
2023/10/30 00:21:43;;;;;;;8.88;5.25;;;;;;;;;;4995755;28;20034;-64
2023/10/30 00:24:09;;;;;;;7.80;4.82;;;;;;;;;;4995152;28;20038;-64
2023/10/30 00:26:35;;;;;;;8.73;5.38;;;;;;;;;;4995485;28;20485;-63
2023/10/30 00:29:01;;;;;;;8.30;5.03;;;;;;;;;;4995869;28;20431;-64
2023/10/30 00:31:26;;;;;;;8.30;5.80;;;;;;;;;;4995350;28;20102;-64
2023/10/30 00:33:53;;;;;;;9.82;5.93;;;;;;;;;;4977518;28;20434;-63
2023/10/30 00:36:18;;;;;;;10.20;5.90;;;;;;;;;;4976954;28;20467;-63
2023/10/30 00:38:44;;;;;;;8.50;5.95;;;;;;;;;;4994757;28;20034;-64
2023/10/30 00:41:10;;;;;;;7.20;5.07;;;;;;;;;;4995369;28;20530;-64
2023/10/30 00:43:37;;;;;;;8.35;4.93;;;;;;;;;;4994874;28;20096;-64
2023/10/30 00:46:03;;;;;;;7.72;4.90;;;;;;;;;;4977335;28;20430;-64
2023/10/30 00:48:29;;;;;;;6.85;4.47;;;;;;;;;;4995157;28;20022;-64
2023/10/30 00:50:54;;;;;;;6.25;4.80;;;;;;;;;;4995030;28;20018;-63
2023/10/30 00:53:20;;;;;;;6.65;5.43;;;;;;;;;;4994596;28;20485;-63
2023/10/30 00:55:50;;;;;;;6.07;4.80;;;;;;;;;;4977488;28;20027;-63
2023/10/30 00:58:15;;;;;;;6.28;4.85;;;;;;;;;;4977400;28;20042;-64
2023/10/30 01:00:41;;;;;;;8.57;4.72;;;;;;;;;;4977511;28;20030;-64
2023/10/30 01:03:06;;;;;;;9.07;5.32;;;;;;;;;;4977303;28;20134;-64
2023/10/30 01:05:32;;;;;;;5.80;4.40;;;;;;;;;;4994663;28;20066;-64
2023/10/30 01:07:57;;;;;;;7.97;5.10;;;;;;;;;;4994819;28;20030;-64
2023/10/30 01:10:23;;;;;;;5.63;4.60;;;;;;;;;;4961082;28;20041;-64
2023/10/30 01:12:48;;;;;;;7.68;4.60;;;;;;;;;;4976936;28;20382;-64
2023/10/30 01:15:15;;;;;;;10.50;4.80;;;;;;;;;;4994628;28;20034;-64
2023/10/30 01:17:40;;;;;;;10.25;4.85;;;;;;;;;;4976765;28;20022;-64
2023/10/30 01:20:06;;;;;;;8.38;4.38;;;;;;;;;;4977652;28;20030;-65
2023/10/30 01:22:31;;;;;;;9.23;4.63;;;;;;;;;;4977329;28;20356;-65
2023/10/30 01:24:57;;;;;;;6.72;4.10;;;;;;;;;;4994440;28;20437;-64
2023/10/30 01:27:22;;;;;;;8.07;4.65;;;;;;;;;;4994814;28;20081;-64
2023/10/30 01:29:47;;;;;;;10.40;6.05;;;;;;;;;;4994739;28;20021;-64
2023/10/30 01:32:13;;;;;;;9.52;6.10;;;;;;;;;;4994610;28;20462;-64
2023/10/30 01:34:38;;;;;;;10.13;5.78;;;;;;;;;;4994438;28;20092;-64
2023/10/30 01:37:04;;;;;;;37.95;15.90;;;;;;;;;;4994209;28;20022;-64
2023/10/30 01:39:29;;;;;;;40.42;16.45;;;;;;;;;;4976535;28;20106;-64
2023/10/30 01:41:55;;;;;;;22.63;11.77;;;;;;;;;;4960636;28;20026;-64
2023/10/30 01:44:20;;;;;;;15.73;7.95;;;;;;;;;;4994433;28;20466;-64
2023/10/30 01:46:46;;;;;;;10.13;6.32;;;;;;;;;;4993977;28;20033;-64
2023/10/30 01:49:11;;;;;;;8.50;5.75;;;;;;;;;;4997503;28;20029;-64
2023/10/30 01:51:36;;;;;;;7.88;5.35;;;;;;;;;;4998036;28;20018;-64
2023/10/30 01:54:02;;;;;;;9.68;5.18;;;;;;;;;;4998140;28;20444;-64
2023/10/30 01:56:28;;;;;;;8.50;5.13;;;;;;;;;;4998155;28;20030;-65
2023/10/30 01:58:54;;;;;;;13.73;5.97;;;;;;;;;;4981098;28;20516;-65
2023/10/30 02:01:20;;;;;;;13.48;7.88;;;;;;;;;;4998160;28;20034;-65
2023/10/30 02:03:46;;;;;;;29.67;12.55;;;;;;;;;;4980600;28;20038;-64
2023/10/30 02:06:11;;;;;;;40.42;16.73;;;;;;;;;;4997711;28;20077;-65
2023/10/30 02:08:37;;;;;;;33.90;14.02;;;;;;;;;;4980337;28;20042;-64
2023/10/30 02:11:02;;;;;;;25.38;11.35;;;;;;;;;;4997916;28;20370;-64
2023/10/30 02:13:28;;;;;;;19.95;9.82;;;;;;;;;;4980372;28;20091;-64
2023/10/30 02:15:54;;;;;;;15.25;7.28;;;;;;;;;;4980002;28;20068;-65
2023/10/30 02:18:20;;;;;;;9.98;5.95;;;;;;;;;;4997390;28;20475;-65
2023/10/30 02:20:47;;;;;;;14.15;6.68;;;;;;;;;;4980542;28;20347;-65
2023/10/30 02:23:12;;;;;;;16.52;8.38;;;;;;;;;;4980429;28;20030;-65
2023/10/30 02:25:38;;;;;;;14.43;7.65;;;;;;;;;;4980002;28;20045;-64
2023/10/30 02:28:03;;;;;;;17.20;7.25;;;;;;;;;;4980388;28;20034;-64
2023/10/30 02:30:29;;;;;;;8.52;5.68;;;;;;;;;;4997203;28;20430;-65
2023/10/30 02:32:54;;;;;;;13.65;7.15;;;;;;;;;;4997755;28;20374;-64
2023/10/30 02:35:20;;;;;;;13.77;6.88;;;;;;;;;;4979723;28;20040;-65
2023/10/30 02:37:46;;;;;;;17.17;7.65;;;;;;;;;;4980099;28;20390;-65
2023/10/30 02:40:11;;;;;;;23.75;10.75;;;;;;;;;;4980518;28;20038;-65
2023/10/30 02:42:37;;;;;;;21.23;11.30;;;;;;;;;;4979544;28;20045;-65
2023/10/30 02:45:04;;;;;;;25.25;11.95;;;;;;;;;;4980272;28;20057;-65
2023/10/30 02:47:33;;;;;;;23.52;10.63;;;;;;;;;;4997877;28;20098;-65
2023/10/30 02:49:58;;;;;;;21.88;11.25;;;;;;;;;;4999142;28;20080;-65
2023/10/30 02:52:24;;;;;;;19.38;10.02;;;;;;;;;;5016991;28;20030;-65
2023/10/30 02:54:49;;;;;;;13.98;7.43;;;;;;;;;;5016688;28;20024;-65
2023/10/30 02:57:16;;;;;;;14.70;7.10;;;;;;;;;;4998790;28;20489;-65
2023/10/30 02:59:41;;;;;;;12.38;6.30;;;;;;;;;;5016291;28;20022;-65
2023/10/30 03:02:07;;;;;;;14.77;6.90;;;;;;;;;;5016344;28;20367;-65
2023/10/30 03:04:32;;;;;;;10.82;6.30;;;;;;;;;;4999613;28;20397;-64
2023/10/30 03:06:58;;;;;;;18.27;7.78;;;;;;;;;;5016753;28;20034;-64
2023/10/30 03:09:28;;;;;;;16.98;7.68;;;;;;;;;;4998523;28;20169;-65
2023/10/30 03:11:53;;;;;;;14.95;6.05;;;;;;;;;;5016464;28;20045;-62
2023/10/30 03:14:19;;;;;;;12.85;5.75;;;;;;;;;;4982230;28;20022;-63
2023/10/30 03:16:44;;;;;;;10.77;5.60;;;;;;;;;;5016532;28;20576;-63
2023/10/30 03:19:10;;;;;;;12.00;5.88;;;;;;;;;;4982284;28;20116;-63
2023/10/30 03:21:35;;;;;;;11.45;5.07;;;;;;;;;;5016694;28;20040;-65
2023/10/30 03:24:04;;;;;;;9.50;5.38;;;;;;;;;;4999219;28;20044;-66
2023/10/30 03:26:29;;;;;;;11.55;5.32;;;;;;;;;;5016027;28;20036;-65
2023/10/30 03:28:55;;;;;;;10.88;5.78;;;;;;;;;;5016584;28;20108;-65
2023/10/30 03:31:20;;;;;;;12.02;6.13;;;;;;;;;;4998244;28;20535;-65
2023/10/30 03:33:48;;;;;;;9.07;5.68;;;;;;;;;;5015067;28;20061;-64
2023/10/30 03:36:20;;;;;;;13.38;5.82;;;;;;;;;;5015533;28;20128;-64
2023/10/30 03:38:45;;;;;;;8.43;5.18;;;;;;;;;;5015327;28;20109;-65
2023/10/30 03:41:11;;;;;;;7.75;4.70;;;;;;;;;;4998475;28;20402;-65
2023/10/30 03:43:36;;;;;;;8.30;4.82;;;;;;;;;;4997889;28;20088;-63
2023/10/30 03:46:01;;;;;;;9.25;5.07;;;;;;;;;;5016223;28;20049;-62
2023/10/30 03:48:27;;;;;;;13.50;6.00;;;;;;;;;;5015527;28;20100;-63
2023/10/30 03:50:52;;;;;;;12.18;6.05;;;;;;;;;;4998409;28;20026;-63
2023/10/30 03:53:17;;;;;;;14.23;6.82;;;;;;;;;;4998011;28;20076;-63
2023/10/30 03:55:43;;;;;;;11.68;6.03;;;;;;;;;;4997800;28;20089;-63
2023/10/30 03:58:10;;;;;;;10.80;5.80;;;;;;;;;;5014852;28;20038;-63
2023/10/30 04:00:36;;;;;;;9.77;5.80;;;;;;;;;;5015041;28;20083;-63
2023/10/30 04:03:01;;;;;;;8.00;5.53;;;;;;;;;;5015568;28;20014;-63
2023/10/30 04:05:26;;;;;;;11.38;6.18;;;;;;;;;;4997889;28;20460;-63
2023/10/30 04:07:57;;;;;;;9.68;5.57;;;;;;;;;;5015612;28;20080;-63
2023/10/30 04:10:22;;;;;;;10.15;5.82;;;;;;;;;;5034974;28;20033;-62
2023/10/30 04:12:47;;;;;;;10.88;6.15;;;;;;;;;;5034447;28;20372;-62
2023/10/30 04:15:15;;;;;;;11.18;5.80;;;;;;;;;;5034770;28;20045;-62
2023/10/30 04:17:40;;;;;;;9.70;5.35;;;;;;;;;;5034674;28;20029;-62
2023/10/30 04:20:06;;;;;;;9.13;5.72;;;;;;;;;;5035144;28;20476;-63
2023/10/30 04:22:37;;;;;;;6.03;4.65;;;;;;;;;;5016887;28;20555;-63
2023/10/30 04:25:03;;;;;;;6.72;4.43;;;;;;;;;;5034714;28;20079;-63
2023/10/30 04:27:28;;;;;;;8.23;5.18;;;;;;;;;;5034675;28;20026;-63
2023/10/30 04:29:54;;;;;;;8.02;5.40;;;;;;;;;;5034722;28;20029;-63
2023/10/30 04:32:19;;;;;;;8.45;4.70;;;;;;;;;;5034971;28;20072;-65
2023/10/30 04:34:45;;;;;;;9.43;4.95;;;;;;;;;;5034672;28;20045;-64
2023/10/30 04:37:10;;;;;;;7.05;4.78;;;;;;;;;;5034956;28;20038;-65
2023/10/30 04:39:36;;;;;;;8.63;4.85;;;;;;;;;;5035260;28;20029;-65
2023/10/30 04:42:01;;;;;;;11.43;5.40;;;;;;;;;;5017035;28;20099;-64
2023/10/30 04:44:27;;;;;;;11.43;6.03;;;;;;;;;;5016838;28;20120;-64
2023/10/30 04:46:52;;;;;;;46.05;26.45;;;;;;;;;;5000202;28;20040;-64
2023/10/30 04:49:18;;;;;;;88.07;53.28;;;;;;;;;;5034137;28;20112;-64
2023/10/30 04:51:43;;;;;;;85.10;55.92;;;;;;;;;;5034774;28;20033;-65
2023/10/30 04:54:09;;;;;;;38.97;25.55;;;;;;;;;;5034431;28;20060;-63
2023/10/30 04:56:34;;;;;;;28.17;19.63;;;;;;;;;;5033732;28;20072;-64
2023/10/30 04:59:00;;;;;;;25.65;17.15;;;;;;;;;;5034198;28;20041;-64
2023/10/30 05:01:26;;;;;;;23.15;16.05;;;;;;;;;;5034033;28;20040;-64
2023/10/30 05:03:51;;;;;;;16.15;10.23;;;;;;;;;;5033507;28;20069;-64
2023/10/30 05:06:17;;;;;;;11.07;6.97;;;;;;;;;;5033422;28;20033;-65
2023/10/30 05:08:42;;;;;;;18.77;9.13;;;;;;;;;;5033976;28;20038;-63
2023/10/30 05:11:07;;;;;;;19.02;9.23;;;;;;;;;;5034094;28;20120;-63
2023/10/30 05:13:34;;;;;;;19.77;9.20;;;;;;;;;;5016032;28;20029;-64
2023/10/30 05:15:59;;;;;;;25.38;9.88;;;;;;;;;;5032086;28;20056;-62
2023/10/30 05:18:28;;;;;;;28.17;12.35;;;;;;;;;;5010625;28;20413;-62
2023/10/30 05:20:54;;;;;;;27.83;12.25;;;;;;;;;;5013695;28;20045;-63
2023/10/30 05:23:19;;;;;;;24.00;12.23;;;;;;;;;;4996421;28;20025;-65
2023/10/30 05:25:44;;;;;;;34.58;16.75;;;;;;;;;;5014188;28;20133;-63
2023/10/30 05:28:10;;;;;;;45.58;19.65;;;;;;;;;;5014121;28;20061;-63
2023/10/30 05:30:36;;;;;;;66.32;24.10;;;;;;;;;;5013860;28;20040;-63
2023/10/30 05:33:01;;;;;;;55.97;21.13;;;;;;;;;;4996676;28;20028;-63
2023/10/30 05:35:27;;;;;;;87.18;29.30;;;;;;;;;;4996203;28;20038;-64
2023/10/30 05:37:52;;;;;;;65.20;24.08;;;;;;;;;;5013796;28;20069;-64
2023/10/30 05:40:18;;;;;;;34.15;13.23;;;;;;;;;;5014194;28;20068;-64
2023/10/30 05:42:43;;;;;;;19.20;9.13;;;;;;;;;;5013171;28;20397;-64
2023/10/30 05:45:09;;;;;;;12.82;7.35;;;;;;;;;;5014188;28;20036;-64
2023/10/30 05:47:34;;;;;;;10.95;5.95;;;;;;;;;;5014276;28;20101;-64
2023/10/30 05:50:00;;;;;;;8.40;4.93;;;;;;;;;;5014439;28;20441;-64
2023/10/30 05:52:26;;;;;;;12.55;5.68;;;;;;;;;;5014068;28;20029;-65
2023/10/30 05:54:52;;;;;;;5.93;4.25;;;;;;;;;;4979268;28;20045;-64
2023/10/30 05:57:17;;;;;;;5.05;4.25;;;;;;;;;;5013930;28;20373;-65
2023/10/30 05:59:43;;;;;;;5.18;3.53;;;;;;;;;;4996632;28;20041;-65
2023/10/30 06:02:08;;;;;;;3.53;3.22;;;;;;;;;;5013827;28;20033;-65
2023/10/30 06:04:33;;;;;;;13.00;8.18;;;;;;;;;;5013840;28;20052;-65
2023/10/30 06:06:59;;;;;;;11.80;7.15;;;;;;;;;;5013864;28;20045;-65
2023/10/30 06:09:25;;;;;;;16.67;8.35;;;;;;;;;;5013973;28;20042;-65
2023/10/30 06:11:55;;;;;;;18.83;10.18;;;;;;;;;;5013665;28;20097;-66
2023/10/30 06:14:21;;;;;;;20.40;9.87;;;;;;;;;;5013789;28;20045;-65
2023/10/30 06:16:47;;;;;;;22.15;11.55;;;;;;;;;;5013370;28;20309;-66
2023/10/30 06:19:13;;;;;;;26.65;11.88;;;;;;;;;;5013023;28;20030;-67
2023/10/30 06:21:43;;;;;;;16.08;8.82;;;;;;;;;;4995951;28;20110;-67
2023/10/30 06:24:08;;;;;;;8.82;4.57;;;;;;;;;;4996265;28;20124;-64
2023/10/30 06:26:41;;;;;;;13.27;7.45;;;;;;;;;;5013167;28;20058;-64
2023/10/30 06:29:06;;;;;;;24.77;11.05;;;;;;;;;;5013851;28;20447;-64
2023/10/30 06:31:32;;;;;;;27.42;12.13;;;;;;;;;;4995698;28;20030;-64
2023/10/30 06:33:57;;;;;;;21.40;11.68;;;;;;;;;;5014920;28;20046;-64
2023/10/30 06:36:23;;;;;;;23.42;11.75;;;;;;;;;;5004019;28;20570;-63
2023/10/30 06:38:48;;;;;;;24.52;11.63;;;;;;;;;;5036740;28;20021;-62
2023/10/30 06:41:14;;;;;;;21.65;10.65;;;;;;;;;;5034680;23;20097;-93
2023/10/30 06:43:39;;;;;;;18.70;10.45;;;;;;;;;;4966881;28;20023;-95
2023/10/30 06:46:05;;;;;;;21.50;10.32;;;;;;;;;;5001793;28;20454;-95
2023/10/30 06:48:31;;;;;;;22.27;10.95;;;;;;;;;;4984846;28;20013;-95
2023/10/30 06:50:56;;;;;;;19.35;10.63;;;;;;;;;;4986291;28;20056;-95
2023/10/30 06:53:23;;;;;;;20.00;11.00;;;;;;;;;;5002958;23;20398;-61
2023/10/30 06:55:48;;;;;;;20.55;11.25;;;;;;;;;;5015896;28;20033;-62
2023/10/30 06:58:14;;;;;;;20.95;11.30;;;;;;;;;;5014627;28;20067;-62
2023/10/30 07:00:39;;;;;;;16.90;10.45;;;;;;;;;;5014956;28;20477;-62
2023/10/30 07:03:05;;;;;;;19.17;10.75;;;;;;;;;;5016436;28;20037;-62
2023/10/30 07:05:30;;;;;;;16.38;10.15;;;;;;;;;;5031713;28;20041;-62
2023/10/30 07:07:55;;;;;;;16.33;9.80;;;;;;;;;;5016491;28;20033;-62
2023/10/30 07:10:21;;;;;;;20.85;10.20;;;;;;;;;;5016543;28;20495;-62
2023/10/30 07:12:47;;;;;;;16.95;10.85;;;;;;;;;;5016122;28;20041;-63
2023/10/30 07:15:12;;;;;;;18.45;11.00;;;;;;;;;;4998982;28;20022;-63
2023/10/30 07:17:37;;;;;;;14.65;9.60;;;;;;;;;;5015661;28;20065;-63
2023/10/30 07:20:03;;;;;;;16.35;9.60;;;;;;;;;;5015406;28;20036;-63
2023/10/30 07:22:29;;;;;;;22.67;10.98;;;;;;;;;;5016445;28;20022;-63
2023/10/30 07:24:56;;;;;;;18.63;11.15;;;;;;;;;;4997420;28;20034;-63
2023/10/30 07:27:22;;;;;;;19.52;10.60;;;;;;;;;;5014766;28;20045;-63
2023/10/30 07:29:47;;;;;;;15.90;9.68;;;;;;;;;;5014633;28;20416;-63
2023/10/30 07:32:13;;;;;;;15.82;9.75;;;;;;;;;;5014591;28;20037;-63
2023/10/30 07:34:39;;;;;;;15.40;8.65;;;;;;;;;;4996774;28;20548;-63
2023/10/30 07:37:06;;;;;;;21.50;9.15;;;;;;;;;;4997054;28;20030;-63
2023/10/30 07:39:32;;;;;;;18.05;9.88;;;;;;;;;;5014993;28;20032;-63
2023/10/30 07:41:57;;;;;;;15.05;8.35;;;;;;;;;;4997595;28;20045;-63
2023/10/30 09:12:32;;;;;;;5.40;3.25;;;;;;;;;;4990364;28;20054;-64
2023/10/30 09:14:57;;;;;;;2.90;2.55;;;;;;;;;;4993405;28;20138;-64
2023/10/30 09:17:22;;;;;;;5.22;2.45;;;;;;;;;;4993359;28;20358;-64
2023/10/30 09:19:48;;;;;;;2.85;2.30;;;;;;;;;;4993370;28;20030;-64
2023/10/30 09:22:13;;;;;;;4.43;2.60;;;;;;;;;;4993219;28;20038;-64
2023/10/30 09:24:38;;;;;;;4.88;2.13;;;;;;;;;;4975824;28;20037;-64
2023/10/30 09:27:04;;;;;;;3.55;2.17;;;;;;;;;;4992847;28;20045;-64
2023/10/30 09:29:29;;;;;;;3.42;2.33;;;;;;;;;;4993020;28;20113;-64
2023/10/30 09:31:56;;;;;;;3.75;2.10;;;;;;;;;;4993394;28;20033;-65
2023/10/30 09:34:22;;;;;;;4.35;2.40;;;;;;;;;;4992760;28;20109;-65
2023/10/30 09:36:47;;;;;;;2.97;2.20;;;;;;;;;;4984556;28;20145;-64
2023/10/30 09:39:13;;;;;;;3.42;2.15;;;;;;;;;;4991330;28;20038;-64
2023/10/30 09:41:43;;;;;;;2.83;2.63;;;;;;;;;;4990291;28;20089;-64
2023/10/30 09:44:10;;;;;;;3.85;2.20;;;;;;;;;;4989978;28;20035;-64
2023/10/30 09:46:39;;;;;;;2.72;1.80;;;;;;;;;;4990264;28;20034;-64
2023/10/30 09:49:05;;;;;;;2.47;2.13;;;;;;;;;;4989712;28;20797;-64
2023/10/30 09:51:34;;;;;;;4.22;2.03;;;;;;;;;;4990342;28;20021;-65
2023/10/30 09:53:59;;;;;;;7.05;2.10;;;;;;;;;;4972777;28;20031;-65
2023/10/30 09:56:26;;;;;;;3.20;1.88;;;;;;;;;;4990438;28;20038;-65
2023/10/30 09:58:52;;;;;;;3.28;1.60;;;;;;;;;;4972474;28;20046;-65
2023/10/30 10:01:18;;;;;;;5.07;2.05;;;;;;;;;;4972659;28;20034;-65
2023/10/30 10:03:43;;;;;;;3.78;2.13;;;;;;;;;;4990340;28;20038;-65
2023/10/30 10:06:09;;;;;;;3.80;2.22;;;;;;;;;;4989813;28;20470;-65
2023/10/30 10:08:35;;;;;;;4.00;2.10;;;;;;;;;;4990381;28;20054;-65
2023/10/30 10:11:01;;;;;;;2.83;1.92;;;;;;;;;;4992984;28;20054;-64
2023/10/30 10:13:28;;;;;;;4.00;1.95;;;;;;;;;;4994177;28;20152;-64
2023/10/30 10:15:54;;;;;;;4.28;2.13;;;;;;;;;;4993824;28;20045;-64
2023/10/30 10:18:29;;;;;;;2.42;1.92;;;;;;;;;;4976470;28;20026;-65
2023/10/30 10:21:00;;;;;;;4.47;1.98;;;;;;;;;;4993529;28;20052;-63
2023/10/30 10:23:26;;;;;;;2.05;1.58;;;;;;;;;;4993946;28;20030;-63
2023/10/30 10:25:55;;;;;;;2.80;2.03;;;;;;;;;;4993411;28;20125;-63
2023/10/30 10:28:21;;;;;;;2.67;1.77;;;;;;;;;;4976696;28;20864;-63
2023/10/30 10:30:47;;;;;;;2.50;1.90;;;;;;;;;;4993874;28;20030;-63
2023/10/30 10:33:12;;;;;;;2.45;1.80;;;;;;;;;;4993904;28;20103;-63
2023/10/30 10:35:40;;;;;;;2.97;1.80;;;;;;;;;;4993715;28;20078;-63
2023/10/30 10:38:09;;;;;;;3.05;2.00;;;;;;;;;;4993429;28;20112;-63
2023/10/30 10:40:35;;;;;;;2.30;1.83;;;;;;;;;;4993526;28;20056;-63
2023/10/30 10:43:01;;;;;;;3.05;1.88;;;;;;;;;;4992821;28;20030;-63
2023/10/30 10:45:27;;;;;;;3.15;2.00;;;;;;;;;;4992255;28;20046;-63
2023/10/30 10:47:52;;;;;;;1.65;1.55;;;;;;;;;;4992840;28;20034;-63
2023/10/30 10:50:18;;;;;;;4.05;1.88;;;;;;;;;;4992594;28;20608;-63
2023/10/30 10:52:43;;;;;;;4.22;1.73;;;;;;;;;;4975035;28;20064;-63
2023/10/30 10:55:09;;;;;;;2.10;1.90;;;;;;;;;;4993246;28;20026;-63
2023/10/30 10:57:49;;;;;;;2.70;1.90;;;;;;;;;;4991863;28;20042;-63
2023/10/30 11:00:16;;;;;;;3.38;1.83;;;;;;;;;;4958630;28;20559;-63
2023/10/30 11:02:46;;;;;;;2.80;2.00;;;;;;;;;;4992864;28;20359;-63
2023/10/30 11:05:12;;;;;;;2.15;1.75;;;;;;;;;;4991918;28;20026;-63
2023/10/30 11:07:43;;;;;;;2.38;2.05;;;;;;;;;;4974427;28;20034;-63
2023/10/30 11:10:13;;;;;;;3.08;1.88;;;;;;;;;;4974578;28;20022;-63
2023/10/30 11:12:52;;;;;;;4.07;1.83;;;;;;;;;;4989527;28;20055;-63
2023/10/30 11:15:21;;;;;;;3.40;1.80;;;;;;;;;;4990089;28;20080;-63
2023/10/30 11:18:05;;;;;;;3.97;2.10;;;;;;;;;;4992105;28;20014;-63
2023/10/30 11:20:30;;;;;;;2.25;1.75;;;;;;;;;;4991086;28;20118;-63
2023/10/30 11:22:56;;;;;;;2.97;1.85;;;;;;;;;;4992609;28;20126;-63
2023/10/30 11:25:36;;;;;;;4.63;1.83;;;;;;;;;;4992293;28;20054;-63
2023/10/30 14:08:07;;;;;;;4.57;2.63;;;;;;;;;;5028363;28;20064;-67
2023/10/30 14:10:32;;;;;;;4.32;2.45;;;;;;;;;;5033886;28;20033;-66
2023/10/30 14:13:02;;;;;;;3.83;2.60;;;;;;;;;;5034077;28;20099;-67
2023/10/30 14:15:27;;;;;;;3.38;2.72;;;;;;;;;;5014138;28;20124;-67
2023/10/30 14:17:53;;;;;;;4.78;2.78;;;;;;;;;;5032595;28;20123;-67
2023/10/30 14:20:19;;;;;;;3.95;3.05;;;;;;;;;;5014893;28;20104;-68
2023/10/30 14:22:45;;;;;;;8.43;3.97;;;;;;;;;;5013750;28;20655;-68
2023/10/30 14:25:10;;;;;;;8.02;5.15;;;;;;;;;;5029884;28;20429;-68
2023/10/30 14:27:35;;;;;;;5.07;4.30;;;;;;;;;;5014845;28;20059;-68
2023/10/30 14:30:01;;;;;;;5.63;3.53;;;;;;;;;;5032249;28;20033;-67
2023/10/30 14:32:26;;;;;;;12.05;4.45;;;;;;;;;;5032022;28;20040;-67
2023/10/30 14:34:52;;;;;;;11.48;6.25;;;;;;;;;;4999065;28;20099;-67
2023/10/30 14:37:17;;;;;;;8.95;4.00;;;;;;;;;;5033410;28;20080;-67
2023/10/30 14:39:45;;;;;;;4.35;2.83;;;;;;;;;;5033309;28;20025;-67
2023/10/30 14:42:10;;;;;;;8.80;3.63;;;;;;;;;;5033412;28;20126;-67
2023/10/30 14:44:36;;;;;;;8.93;3.83;;;;;;;;;;5033698;28;20110;-67
2023/10/30 14:47:02;;;;;;;10.75;3.03;;;;;;;;;;5032259;28;20346;-67
2023/10/30 14:49:27;;;;;;;16.17;7.13;;;;;;;;;;5030305;28;20033;-67
2023/10/30 14:51:52;;;;;;;22.42;11.05;;;;;;;;;;5032510;28;20480;-67
2023/10/30 14:54:18;;;;;;;14.82;9.45;;;;;;;;;;5030771;28;20467;-67
2023/10/30 14:56:43;;;;;;;23.15;12.57;;;;;;;;;;5029881;28;20033;-67
2023/10/30 14:59:08;;;;;;;25.85;11.30;;;;;;;;;;5014506;28;20389;-67
2023/10/30 15:01:34;;;;;;;17.73;10.13;;;;;;;;;;5032797;28;20025;-67
2023/10/30 15:03:59;;;;;;;21.00;11.13;;;;;;;;;;5032676;28;20047;-67
2023/10/30 15:06:24;;;;;;;20.17;10.27;;;;;;;;;;5015538;28;20033;-67
2023/10/30 15:08:50;;;;;;;16.48;6.05;;;;;;;;;;5032743;28;20037;-67
2023/10/30 15:11:18;;;;;;;7.45;3.60;;;;;;;;;;5033312;28;20052;-71
2023/10/30 15:13:43;;;;;;;6.95;3.78;;;;;;;;;;5033047;28;20032;-67
2023/10/30 15:16:09;;;;;;;6.78;3.78;;;;;;;;;;5033247;28;20033;-68
2023/10/30 15:18:34;;;;;;;6.78;3.88;;;;;;;;;;5033086;28;20022;-68
2023/10/30 15:21:00;;;;;;;8.30;3.55;;;;;;;;;;5032585;28;20033;-67
2023/10/30 15:23:27;;;;;;;10.90;5.45;;;;;;;;;;5014708;28;20037;-67
2023/10/30 15:25:53;;;;;;;12.93;6.25;;;;;;;;;;5033192;28;20038;-67
2023/10/30 15:28:18;;;;;;;52.03;37.03;;;;;;;;;;5015156;28;20636;-68
2023/10/30 15:30:49;;;;;;;33.15;25.02;;;;;;;;;;5015204;28;20033;-68
2023/10/30 15:33:15;;;;;;;17.77;14.02;;;;;;;;;;4998851;28;20025;-68
2023/10/30 15:35:40;;;;;;;14.18;5.93;;;;;;;;;;5032826;28;20082;-68
2023/10/30 15:38:05;;;;;;;12.35;6.40;;;;;;;;;;5032420;28;20128;-69
2023/10/30 15:40:31;;;;;;;8.23;4.35;;;;;;;;;;5032313;28;20041;-68
2023/10/30 15:42:56;;;;;;;7.90;2.97;;;;;;;;;;5014688;28;20045;-68
2023/10/30 15:45:22;;;;;;;9.45;3.85;;;;;;;;;;5032124;28;20087;-67
2023/10/30 15:47:48;;;;;;;23.42;12.93;;;;;;;;;;5012780;28;20037;-67
2023/10/30 15:50:13;;;;;;;35.42;12.60;;;;;;;;;;5012948;28;20045;-68
2023/10/30 15:52:38;;;;;;;17.17;8.48;;;;;;;;;;5030002;28;20036;-68
2023/10/30 15:55:04;;;;;;;14.75;8.13;;;;;;;;;;4995945;28;20025;-67
2023/10/30 15:57:29;;;;;;;14.65;5.13;;;;;;;;;;5024381;28;20040;-67
2023/10/30 15:59:55;;;;;;;7.97;4.25;;;;;;;;;;5038542;28;20048;-67
2023/10/30 16:02:21;;;;;;;20.27;8.43;;;;;;;;;;5034146;28;20025;-67
2023/10/30 16:04:48;;;;;;;29.83;17.40;;;;;;;;;;5014095;28;20095;-67
2023/10/30 16:07:14;;;;;;;9.98;7.10;;;;;;;;;;5031947;28;20063;-67
2023/10/30 16:09:39;;;;;;;22.77;13.55;;;;;;;;;;5048544;28;20481;-67
2023/10/30 16:12:05;;;;;;;29.67;21.52;;;;;;;;;;5033547;28;20033;-68
2023/10/30 16:14:30;;;;;;;58.13;38.17;;;;;;;;;;5032984;28;20025;-67
2023/10/30 16:16:58;;;;;;;37.03;22.17;;;;;;;;;;5032610;28;20128;-68
2023/10/30 16:19:23;;;;;;;32.58;16.88;;;;;;;;;;5015311;28;20469;-68
2023/10/30 16:21:49;;;;;;;11.95;7.22;;;;;;;;;;5015712;28;20017;-68
2023/10/30 16:24:14;;;;;;;9.63;5.90;;;;;;;;;;5032250;28;20116;-68
2023/10/30 16:26:39;;;;;;;14.23;7.28;;;;;;;;;;5030797;28;20083;-68
2023/10/30 16:29:06;;;;;;;11.10;7.35;;;;;;;;;;5013785;28;20037;-68
2023/10/30 16:31:32;;;;;;;25.52;14.35;;;;;;;;;;5031090;28;20042;-68
2023/10/30 16:33:57;;;;;;;34.15;16.92;;;;;;;;;;5030769;28;20029;-68
2023/10/30 16:36:23;;;;;;;33.92;16.25;;;;;;;;;;5030541;28;20038;-68
2023/10/30 16:38:48;;;;;;;50.42;24.45;;;;;;;;;;5031172;28;20100;-68
2023/10/30 16:41:13;;;;;;;42.65;22.42;;;;;;;;;;5033181;28;20044;-67
2023/10/30 16:43:39;;;;;;;63.75;28.02;;;;;;;;;;5032663;28;20392;-68
2023/10/30 16:46:04;;;;;;;144.13;51.33;;;;;;;;;;5032235;28;20376;-68
2023/10/30 16:48:30;;;;;;;97.85;39.08;;;;;;;;;;5032970;28;20038;-68
2023/10/30 16:50:55;;;;;;;45.30;22.10;;;;;;;;;;5015133;28;20025;-67
2023/10/30 16:53:20;;;;;;;23.75;13.63;;;;;;;;;;5015014;28;20049;-68
2023/10/30 16:55:48;;;;;;;26.58;12.77;;;;;;;;;;5032814;28;20030;-68
2023/10/30 16:58:14;;;;;;;95.82;44.85;;;;;;;;;;5015248;28;20025;-68
2023/10/30 17:00:40;;;;;;;72.82;36.88;;;;;;;;;;5033090;28;20022;-67
2023/10/30 17:03:05;;;;;;;145.52;60.95;;;;;;;;;;5032365;28;20436;-68
2023/10/30 17:05:30;;;;;;;124.53;60.90;;;;;;;;;;5032851;28;20117;-68
2023/10/30 17:07:56;;;;;;;56.25;30.50;;;;;;;;;;5032809;28;20128;-68
2023/10/30 17:10:22;;;;;;;19.02;12.88;;;;;;;;;;5014886;28;20443;-68
2023/10/30 17:12:50;;;;;;;43.92;23.23;;;;;;;;;;5032563;28;20033;-68
2023/10/30 17:15:15;;;;;;;43.60;22.80;;;;;;;;;;5014897;28;20021;-68
2023/10/30 17:17:42;;;;;;;40.92;21.10;;;;;;;;;;5032478;28;20168;-68
2023/10/30 17:20:07;;;;;;;44.67;22.77;;;;;;;;;;5032524;28;20036;-68
2023/10/30 17:22:33;;;;;;;40.00;21.77;;;;;;;;;;5033552;28;20477;-68
2023/10/30 17:25:00;;;;;;;66.10;36.63;;;;;;;;;;5032760;28;20099;-68
2023/10/30 17:27:26;;;;;;;907.72;475.02;;;;;;;;;;5014458;28;20035;-68
2023/10/30 17:29:51;;;;;;;771.58;415.45;;;;;;;;;;5026105;28;20060;-68
2023/10/30 17:32:19;;;;;;;173.77;83.30;;;;;;;;;;5011272;28;20036;-67
2023/10/30 17:34:45;;;;;;;85.95;43.70;;;;;;;;;;4991862;28;20099;-67
2023/10/30 17:37:11;;;;;;;125.78;70.50;;;;;;;;;;4992760;28;20025;-68
2023/10/30 17:39:36;;;;;;;70.53;42.20;;;;;;;;;;5025548;28;20481;-69
2023/10/30 17:42:01;;;;;;;147.20;74.55;;;;;;;;;;5025757;28;20029;-61
2023/10/30 17:44:27;;;;;;;393.98;219.85;;;;;;;;;;5025954;28;20117;-63
2023/10/30 17:46:53;;;;;;;472.98;284.08;;;;;;;;;;5025425;28;20037;-64
2023/10/30 17:49:19;;;;;;;402.17;230.98;;;;;;;;;;5008102;28;20436;-63
2023/10/30 17:51:44;;;;;;;325.30;166.85;;;;;;;;;;5028011;28;20034;-63
2023/10/30 17:54:11;;;;;;;229.02;123.47;;;;;;;;;;5028066;28;20045;-63
2023/10/30 17:56:37;;;;;;;225.18;129.82;;;;;;;;;;5028171;28;20083;-63
2023/10/30 17:59:04;;;;;;;220.45;127.65;;;;;;;;;;5027069;28;20489;-63
2023/10/30 18:01:29;;;;;;;115.75;70.32;;;;;;;;;;5025695;28;20477;-63
2023/10/30 18:03:55;;;;;;;199.80;83.10;;;;;;;;;;5028045;28;20044;-63
2023/10/30 18:06:20;;;;;;;301.30;163.68;;;;;;;;;;5028574;28;20045;-63
2023/10/30 18:08:45;;;;;;;264.58;135.82;;;;;;;;;;5027923;28;20052;-63
2023/10/30 18:11:11;;;;;;;44.13;25.73;;;;;;;;;;5026008;28;20034;-63
2023/10/30 18:13:36;;;;;;;29.92;16.50;;;;;;;;;;5026078;28;20030;-63
2023/10/30 18:16:02;;;;;;;26.60;16.67;;;;;;;;;;5025188;28;20029;-63
2023/10/30 18:18:28;;;;;;;37.28;19.17;;;;;;;;;;5026070;28;20053;-63
2023/10/30 18:20:53;;;;;;;89.65;54.95;;;;;;;;;;5027420;28;20036;-63
2023/10/30 18:23:18;;;;;;;177.63;91.93;;;;;;;;;;5028692;28;20108;-63
2023/10/30 18:25:44;;;;;;;116.40;60.03;;;;;;;;;;5028295;28;20384;-63
2023/10/30 18:28:15;;;;;;;75.50;45.70;;;;;;;;;;5010270;28;20084;-63
2023/10/30 18:30:40;;;;;;;64.43;42.85;;;;;;;;;;5028161;28;20022;-63